Time;durP1;ratioP1;P1;durP2;ratioP2;P2;SDS_P1;SDS_P2;PMS_P1;PMS_P2;Temp;Humidity;BMP_temperature;BMP_pressure;BME280_temperature;BME280_humidity;BME280_pressure;Samples;Min_cycle;Max_cycle;Signal;HPM_P1;HPM_P2
2022/11/04 05:19:17;;;;;;;;;;;;;;;;;;5133720;23;20382;-60
2022/11/04 05:21:43;;;;;;;59.35;27.00;;;;;;;;;;4915966;29;19919;-59
2022/11/04 05:24:10;;;;;;;61.03;26.80;;;;;;;;;;4916526;29;20151;-59
2022/11/04 05:26:36;;;;;;;56.38;26.10;;;;;;;;;;4915852;29;20079;-59
2022/11/04 05:29:02;;;;;;;59.00;26.23;;;;;;;;;;4916013;29;20103;-60
2022/11/04 05:31:29;;;;;;;58.35;27.52;;;;;;;;;;4916157;29;20145;-59
2022/11/04 05:33:57;;;;;;;58.33;27.45;;;;;;;;;;4915598;29;20032;-59
2022/11/04 05:36:23;;;;;;;59.78;26.17;;;;;;;;;;4915890;29;20031;-63
2022/11/04 05:38:54;;;;;;;56.03;26.75;;;;;;;;;;4915716;29;20099;-66
2022/11/04 05:41:26;;;;;;;58.33;27.07;;;;;;;;;;4915994;29;20468;-60
2022/11/04 05:43:54;;;;;;;60.67;26.73;;;;;;;;;;4898393;29;20456;-65
2022/11/04 05:46:21;;;;;;;61.00;26.77;;;;;;;;;;4916238;29;20032;-59
2022/11/04 05:48:47;;;;;;;61.28;26.48;;;;;;;;;;4915399;29;20028;-59
2022/11/04 05:51:17;;;;;;;59.17;26.70;;;;;;;;;;4916278;29;20052;-59
2022/11/04 05:53:43;;;;;;;51.88;25.80;;;;;;;;;;4915996;29;20032;-59
2022/11/04 05:56:09;;;;;;;57.03;27.02;;;;;;;;;;4915703;29;20056;-64
2022/11/04 05:58:35;;;;;;;59.72;26.52;;;;;;;;;;4915801;29;20107;-60
2022/11/04 06:01:12;;;;;;;60.72;27.33;;;;;;;;;;4915807;29;20039;-64
2022/11/04 06:03:38;;;;;;;55.30;25.48;;;;;;;;;;4915443;29;20088;-59
2022/11/04 06:06:04;;;;;;;57.50;25.70;;;;;;;;;;4915858;29;20139;-64
2022/11/04 06:08:31;;;;;;;58.63;26.75;;;;;;;;;;4915531;29;20411;-63
2022/11/04 06:10:57;;;;;;;58.33;26.33;;;;;;;;;;4915734;29;20040;-60
2022/11/04 06:13:23;;;;;;;54.70;24.73;;;;;;;;;;4915676;29;20512;-65
2022/11/04 06:15:49;;;;;;;49.58;25.45;;;;;;;;;;4915668;29;20424;-60
2022/11/04 06:18:15;;;;;;;57.28;26.20;;;;;;;;;;4915256;29;20036;-59
2022/11/04 06:20:41;;;;;;;57.33;26.13;;;;;;;;;;4915224;29;20056;-60
2022/11/04 06:23:07;;;;;;;58.03;26.55;;;;;;;;;;4915336;29;20119;-60
2022/11/04 06:25:33;;;;;;;53.13;25.70;;;;;;;;;;4915134;29;20549;-61
2022/11/04 06:27:59;;;;;;;55.58;25.38;;;;;;;;;;4914858;29;20526;-60
2022/11/04 06:30:25;;;;;;;57.53;25.08;;;;;;;;;;4897531;29;20079;-60
2022/11/04 06:32:51;;;;;;;54.08;24.77;;;;;;;;;;4914939;29;20067;-63
2022/11/04 06:35:17;;;;;;;56.95;26.85;;;;;;;;;;4915121;29;20056;-60
2022/11/04 06:37:43;;;;;;;52.83;25.38;;;;;;;;;;4915008;29;20024;-59
2022/11/04 06:40:09;;;;;;;60.42;26.15;;;;;;;;;;4914747;29;20020;-60
2022/11/04 06:42:36;;;;;;;56.10;25.85;;;;;;;;;;4914950;29;20510;-66
2022/11/04 06:45:02;;;;;;;54.38;25.73;;;;;;;;;;4915020;29;20087;-67
2022/11/04 06:47:28;;;;;;;58.53;25.63;;;;;;;;;;4915142;29;20028;-68
2022/11/04 06:49:54;;;;;;;56.20;25.70;;;;;;;;;;4915092;29;20031;-61
2022/11/04 06:52:20;;;;;;;56.35;26.65;;;;;;;;;;4914702;29;20392;-59
2022/11/04 06:54:46;;;;;;;48.03;24.70;;;;;;;;;;4914822;29;20052;-69
2022/11/04 06:57:12;;;;;;;56.05;26.15;;;;;;;;;;4915027;29;20477;-65
2022/11/04 06:59:39;;;;;;;52.75;25.33;;;;;;;;;;4915116;29;20047;-65
2022/11/04 07:02:05;;;;;;;55.92;26.00;;;;;;;;;;4907511;29;20121;-67
2022/11/04 07:04:31;;;;;;;51.05;24.42;;;;;;;;;;4898003;29;20028;-59
2022/11/04 07:06:57;;;;;;;49.92;24.83;;;;;;;;;;4895079;29;20477;-60
2022/11/04 07:09:23;;;;;;;49.17;24.20;;;;;;;;;;4897957;29;20083;-59
2022/11/04 07:11:49;;;;;;;55.08;24.38;;;;;;;;;;4904953;29;20039;-58
2022/11/04 07:14:15;;;;;;;52.38;25.08;;;;;;;;;;4897661;29;20033;-60
2022/11/04 07:16:42;;;;;;;53.50;25.50;;;;;;;;;;4895200;29;20032;-59
2022/11/04 07:19:08;;;;;;;53.53;25.85;;;;;;;;;;4894746;29;20113;-59
2022/11/04 07:21:34;;;;;;;51.45;25.63;;;;;;;;;;4895305;29;20103;-64
2022/11/04 07:24:01;;;;;;;50.38;23.92;;;;;;;;;;4878197;29;20056;-58
2022/11/04 07:26:27;;;;;;;48.83;24.70;;;;;;;;;;4899987;29;20049;-59
2022/11/04 07:28:53;;;;;;;50.88;24.73;;;;;;;;;;4902926;29;20031;-67
2022/11/04 07:31:21;;;;;;;50.15;25.38;;;;;;;;;;4903850;29;20038;-59
2022/11/04 07:33:48;;;;;;;53.78;25.33;;;;;;;;;;4904371;29;20032;-59
2022/11/04 07:36:15;;;;;;;50.22;25.00;;;;;;;;;;4903944;29;20537;-59
2022/11/04 07:38:42;;;;;;;49.83;25.02;;;;;;;;;;4906995;29;20103;-61
2022/11/04 07:41:08;;;;;;;49.28;23.67;;;;;;;;;;4908348;29;20376;-60
2022/11/04 07:43:34;;;;;;;48.15;22.98;;;;;;;;;;4906456;29;20025;-59
2022/11/04 07:46:08;;;;;;;50.08;23.48;;;;;;;;;;4907460;29;20020;-60
2022/11/04 07:48:35;;;;;;;51.20;24.90;;;;;;;;;;4906791;29;20025;-68
2022/11/04 07:51:01;;;;;;;50.92;24.30;;;;;;;;;;4907241;29;20138;-59
2022/11/04 07:53:28;;;;;;;47.45;23.35;;;;;;;;;;4908066;29;20024;-61
2022/11/04 07:55:54;;;;;;;52.83;24.55;;;;;;;;;;4906856;29;20036;-61
2022/11/04 07:58:20;;;;;;;48.45;24.15;;;;;;;;;;4908663;29;20037;-61
2022/11/04 08:00:46;;;;;;;47.47;22.80;;;;;;;;;;4907776;29;20032;-61
2022/11/04 08:03:12;;;;;;;46.88;23.33;;;;;;;;;;4905952;29;20017;-62
2022/11/04 08:05:38;;;;;;;47.05;23.00;;;;;;;;;;4890630;29;20024;-65
2022/11/04 08:08:04;;;;;;;46.38;23.77;;;;;;;;;;4907937;29;20107;-62
2022/11/04 08:10:31;;;;;;;46.75;24.33;;;;;;;;;;4911861;29;20428;-61
2022/11/04 08:12:57;;;;;;;47.63;23.23;;;;;;;;;;4908835;29;20044;-62
2022/11/04 08:15:23;;;;;;;50.17;24.30;;;;;;;;;;4898011;29;20049;-63
2022/11/04 08:17:49;;;;;;;53.50;24.48;;;;;;;;;;4897822;29;20029;-61
2022/11/04 08:20:15;;;;;;;49.15;23.63;;;;;;;;;;4897861;29;20465;-62
2022/11/04 08:22:41;;;;;;;53.70;24.38;;;;;;;;;;4897518;29;20450;-62
2022/11/04 08:25:07;;;;;;;54.33;23.67;;;;;;;;;;4880965;29;20382;-62
2022/11/04 08:27:34;;;;;;;52.45;24.45;;;;;;;;;;4898267;29;20084;-62
2022/11/04 08:30:00;;;;;;;47.83;23.02;;;;;;;;;;4898060;29;20469;-61
2022/11/04 08:32:26;;;;;;;51.20;24.15;;;;;;;;;;4897688;29;20032;-67
2022/11/04 08:34:52;;;;;;;54.97;24.85;;;;;;;;;;4897535;29;20495;-62
2022/11/04 08:37:18;;;;;;;57.38;24.13;;;;;;;;;;4897516;29;20032;-66
2022/11/04 08:39:44;;;;;;;49.28;23.45;;;;;;;;;;4897997;29;20085;-61
2022/11/04 08:42:10;;;;;;;51.00;23.92;;;;;;;;;;4897567;29;20059;-66
2022/11/04 08:44:38;;;;;;;50.53;24.15;;;;;;;;;;4897780;29;20061;-62
2022/11/04 08:47:04;;;;;;;49.38;22.88;;;;;;;;;;4897379;29;20107;-61
2022/11/04 08:49:30;;;;;;;42.95;22.40;;;;;;;;;;4897557;29;20120;-62
2022/11/04 08:51:58;;;;;;;50.72;22.33;;;;;;;;;;4897270;29;20036;-63
2022/11/04 08:54:25;;;;;;;46.97;23.00;;;;;;;;;;4897486;29;20033;-62
2022/11/04 08:56:51;;;;;;;51.38;23.10;;;;;;;;;;4897811;29;20033;-69
2022/11/04 08:59:17;;;;;;;44.88;21.80;;;;;;;;;;4897800;29;20029;-66
2022/11/04 09:01:44;;;;;;;42.20;21.40;;;;;;;;;;4897110;29;20064;-62
2022/11/04 09:04:11;;;;;;;45.38;21.08;;;;;;;;;;4897356;29;20029;-65
2022/11/04 09:06:38;;;;;;;46.65;20.58;;;;;;;;;;4897217;29;20515;-64
2022/11/04 09:09:05;;;;;;;41.55;19.98;;;;;;;;;;4897310;29;20028;-63
2022/11/04 09:11:33;;;;;;;49.28;20.33;;;;;;;;;;4897172;29;20024;-63
2022/11/04 09:14:00;;;;;;;37.13;19.25;;;;;;;;;;4897333;29;20059;-70
2022/11/04 09:16:26;;;;;;;37.67;18.15;;;;;;;;;;4896732;29;20028;-62
2022/11/04 09:18:52;;;;;;;42.28;19.00;;;;;;;;;;4897013;29;20085;-66
2022/11/04 09:21:18;;;;;;;43.20;20.08;;;;;;;;;;4881976;29;20064;-63
2022/11/04 09:23:45;;;;;;;37.15;18.33;;;;;;;;;;4905455;29;20488;-62
2022/11/04 09:26:12;;;;;;;46.25;20.35;;;;;;;;;;4901793;29;20040;-68
2022/11/04 09:28:39;;;;;;;38.25;17.15;;;;;;;;;;4906304;29;20024;-61
2022/11/04 09:31:08;;;;;;;43.15;19.55;;;;;;;;;;4904233;29;20506;-61
2022/11/04 09:33:34;;;;;;;44.15;20.25;;;;;;;;;;4914428;29;20147;-62
2022/11/04 09:36:00;;;;;;;38.45;18.75;;;;;;;;;;4909969;29;20400;-64
2022/11/04 09:38:27;;;;;;;36.42;18.30;;;;;;;;;;4900954;29;20429;-63
2022/11/04 09:40:53;;;;;;;38.67;18.60;;;;;;;;;;4905155;29;20029;-63
2022/11/04 09:43:32;;;;;;;33.38;17.67;;;;;;;;;;4901729;29;20040;-69
2022/11/04 09:45:59;;;;;;;40.88;18.05;;;;;;;;;;4896804;29;20024;-63
2022/11/04 09:48:37;;;;;;;40.15;19.00;;;;;;;;;;4897108;29;20047;-62
2022/11/04 09:51:04;;;;;;;36.35;18.15;;;;;;;;;;4896781;29;20029;-63
2022/11/04 09:53:40;;;;;;;40.42;18.88;;;;;;;;;;4896196;29;20040;-62
2022/11/04 09:56:13;;;;;;;37.80;18.40;;;;;;;;;;4896554;29;20048;-64
2022/11/04 09:58:39;;;;;;;34.53;17.38;;;;;;;;;;4896541;29;20066;-63
2022/11/04 10:01:12;;;;;;;40.28;18.40;;;;;;;;;;4896464;29;20388;-63
2022/11/04 10:03:56;;;;;;;32.10;16.42;;;;;;;;;;4897166;29;20064;-62
2022/11/04 10:06:32;;;;;;;34.30;15.82;;;;;;;;;;4896181;29;20028;-63
2022/11/04 10:09:16;;;;;;;32.67;16.75;;;;;;;;;;4896630;29;20029;-64
2022/11/04 10:11:42;;;;;;;33.13;16.25;;;;;;;;;;4896314;29;20425;-62
2022/11/04 10:14:14;;;;;;;29.58;15.70;;;;;;;;;;4895938;29;20033;-62
2022/11/04 10:16:46;;;;;;;31.20;16.35;;;;;;;;;;4896092;29;20037;-63
2022/11/04 10:19:27;;;;;;;34.38;16.63;;;;;;;;;;4895908;29;20478;-63
2022/11/04 10:22:04;;;;;;;37.75;17.77;;;;;;;;;;4894803;29;20392;-63
2022/11/04 10:24:30;;;;;;;33.25;16.02;;;;;;;;;;4895132;29;20044;-65
2022/11/04 10:27:02;;;;;;;33.83;16.10;;;;;;;;;;4895837;29;20032;-63
2022/11/04 10:29:45;;;;;;;31.63;17.35;;;;;;;;;;4896223;29;20111;-65
2022/11/04 10:32:17;;;;;;;30.98;15.55;;;;;;;;;;4896168;29;20044;-67
2022/11/04 10:34:49;;;;;;;32.35;15.25;;;;;;;;;;4896027;29;20060;-64
2022/11/04 10:37:16;;;;;;;29.98;15.35;;;;;;;;;;4896572;29;20028;-68
2022/11/04 10:39:46;;;;;;;34.10;14.90;;;;;;;;;;4895536;29;20025;-66
2022/11/04 10:42:21;;;;;;;31.77;15.93;;;;;;;;;;4895560;29;20491;-63
2022/11/04 10:44:47;;;;;;;32.17;15.23;;;;;;;;;;4895627;29;20043;-62
2022/11/04 10:47:32;;;;;;;33.55;15.70;;;;;;;;;;4900883;29;20036;-65
2022/11/04 10:50:07;;;;;;;29.05;14.48;;;;;;;;;;4914708;29;20028;-64
2022/11/04 10:52:34;;;;;;;31.60;15.38;;;;;;;;;;4914273;29;20032;-63
2022/11/04 10:55:00;;;;;;;36.13;15.73;;;;;;;;;;4914315;29;20040;-63
2022/11/04 10:57:27;;;;;;;29.48;14.55;;;;;;;;;;4914691;29;20043;-62
2022/11/04 10:59:54;;;;;;;32.63;16.35;;;;;;;;;;4914796;29;20605;-70
2022/11/04 11:02:36;;;;;;;33.97;16.10;;;;;;;;;;4914836;29;20029;-66
2022/11/04 11:05:15;;;;;;;34.20;15.52;;;;;;;;;;4914055;29;20028;-62
2022/11/04 11:07:41;;;;;;;31.55;15.10;;;;;;;;;;4914272;29;20036;-61
2022/11/04 11:10:15;;;;;;;35.55;15.52;;;;;;;;;;4914120;29;20055;-68
2022/11/04 11:12:49;;;;;;;32.83;15.30;;;;;;;;;;4896068;29;20441;-66
2022/11/04 11:15:34;;;;;;;30.88;15.85;;;;;;;;;;4914192;29;20555;-65
2022/11/04 11:18:27;;;;;;;32.97;16.10;;;;;;;;;;4914244;29;20048;-64
2022/11/04 11:20:53;;;;;;;;;;;;;;;;;;4914181;29;20044;-65
2022/11/04 11:23:39;;;;;;;38.67;16.23;;;;;;;;;;4913744;29;19922;-61
2022/11/04 11:26:07;;;;;;;34.40;17.77;;;;;;;;;;4881518;29;20040;-67
2022/11/04 11:28:37;;;;;;;33.75;17.35;;;;;;;;;;4913917;29;20028;-61
2022/11/04 11:31:25;;;;;;;34.58;17.77;;;;;;;;;;4913924;29;20441;-61
2022/11/04 11:34:17;;;;;;;31.85;15.98;;;;;;;;;;4818887;29;20042;-64
2022/11/04 11:37:04;;;;;;;36.53;16.83;;;;;;;;;;4764950;30;20058;-62
2022/11/04 11:39:50;;;;;;;37.75;18.08;;;;;;;;;;4729571;30;20119;-63
2022/11/04 11:42:40;;;;;;;33.65;17.17;;;;;;;;;;4694786;30;20550;-62
2022/11/04 11:45:29;;;;;;;36.45;17.63;;;;;;;;;;4668642;30;20057;-62
2022/11/04 11:48:15;;;;;;;38.50;17.23;;;;;;;;;;4643106;30;20047;-63
2022/11/04 11:51:07;;;;;;;32.88;16.23;;;;;;;;;;4626382;31;20137;-61
2022/11/04 12:09:46;;;;;;;32.95;14.50;;;;;;;;;;4535328;31;20227;-61
2022/11/04 12:12:18;;;;;;;31.98;15.63;;;;;;;;;;4626546;31;20075;-63
2022/11/04 12:14:51;;;;;;;28.45;13.45;;;;;;;;;;4642619;30;20233;-65
2022/11/04 12:17:35;;;;;;;28.77;13.93;;;;;;;;;;4643327;30;20057;-62
2022/11/04 12:20:30;;;;;;;29.80;13.73;;;;;;;;;;4643407;30;20071;-62
2022/11/04 12:22:56;;;;;;;26.65;14.00;;;;;;;;;;4641000;30;20166;-60
2022/11/04 12:25:48;;;;;;;35.70;14.68;;;;;;;;;;4646779;30;20055;-60
2022/11/04 12:28:35;;;;;;;27.50;13.70;;;;;;;;;;4667317;30;20053;-72
2022/11/04 12:31:07;;;;;;;30.95;14.93;;;;;;;;;;4732042;30;20051;-61
2022/11/04 12:33:33;;;;;;;29.08;14.68;;;;;;;;;;4778853;29;20030;-68
2022/11/04 12:36:02;;;;;;;35.15;15.63;;;;;;;;;;4803485;29;20072;-64
2022/11/04 12:38:31;;;;;;;32.30;15.13;;;;;;;;;;4803791;29;20038;-61
2022/11/04 12:41:04;;;;;;;35.08;14.57;;;;;;;;;;4803428;29;20078;-67
2022/11/04 12:43:39;;;;;;;34.22;14.13;;;;;;;;;;4819826;29;20071;-61
2022/11/04 12:46:11;;;;;;;30.65;14.20;;;;;;;;;;4821481;29;20046;-60
2022/11/04 12:49:00;;;;;;;32.00;15.05;;;;;;;;;;4821596;29;20038;-61
2022/11/04 12:51:29;;;;;;;34.17;15.93;;;;;;;;;;4821376;29;20039;-63
2022/11/04 12:53:55;;;;;;;34.40;15.15;;;;;;;;;;4821302;29;20785;-62
2022/11/04 12:56:36;;;;;;;33.38;15.52;;;;;;;;;;4821437;29;20065;-62
2022/11/04 12:59:29;;;;;;;35.22;15.75;;;;;;;;;;4835098;29;20114;-62
2022/11/04 13:02:04;;;;;;;34.85;15.18;;;;;;;;;;4858233;29;20116;-61
2022/11/04 13:04:35;;;;;;;33.70;15.52;;;;;;;;;;4858014;29;20537;-61
2022/11/04 13:07:04;;;;;;;32.90;15.68;;;;;;;;;;4858012;29;20502;-72
2022/11/04 13:09:33;;;;;;;38.35;17.00;;;;;;;;;;4842619;29;20038;-61
2022/11/04 13:12:09;;;;;;;40.58;17.27;;;;;;;;;;4857801;29;20502;-64
2022/11/04 13:14:41;;;;;;;32.97;15.93;;;;;;;;;;4857900;29;20068;-70
2022/11/04 13:17:10;;;;;;;29.60;14.95;;;;;;;;;;4857755;29;20041;-62
2022/11/04 13:19:43;;;;;;;34.75;15.38;;;;;;;;;;4857997;29;20054;-61
2022/11/04 13:22:17;;;;;;;34.63;15.30;;;;;;;;;;4842225;29;20511;-63
2022/11/04 13:24:47;;;;;;;35.03;17.25;;;;;;;;;;4857045;29;20030;-61
2022/11/04 13:27:22;;;;;;;34.92;18.10;;;;;;;;;;4857991;29;20045;-60
2022/11/04 13:29:50;;;;;;;31.83;15.07;;;;;;;;;;4857526;29;20033;-61
2022/11/04 13:32:21;;;;;;;39.00;16.00;;;;;;;;;;4857655;29;20034;-60
2022/11/04 13:35:04;;;;;;;35.10;15.80;;;;;;;;;;4856960;29;20054;-61
2022/11/04 13:37:33;;;;;;;30.90;14.75;;;;;;;;;;4857727;29;20513;-60
2022/11/04 13:40:03;;;;;;;30.42;14.18;;;;;;;;;;4857176;29;20037;-66
